createdAt,value
2018-08-20T00:02:37.012Z,24.20
2018-08-20T00:07:29.599Z,24.11
2018-08-20T00:12:22.268Z,24.06
2018-08-20T00:17:14.946Z,24.04
2018-08-20T00:22:07.448Z,23.99
2018-08-20T00:27:01.627Z,23.87
2018-08-20T00:31:54.089Z,23.74
2018-08-20T00:36:47.768Z,23.59
2018-08-20T00:41:40.238Z,23.51
2018-08-20T00:46:32.791Z,23.45
2018-08-20T00:51:25.292Z,23.43
2018-08-20T00:56:17.799Z,23.38
2018-08-20T01:01:10.308Z,23.36
2018-08-20T01:06:02.972Z,23.31
2018-08-20T01:10:55.548Z,23.29
2018-08-20T01:15:48.068Z,23.28
2018-08-20T01:20:40.601Z,23.29
2018-08-20T01:25:33.084Z,23.28
2018-08-20T01:30:25.585Z,23.31
2018-08-20T01:35:24.886Z,23.32
2018-08-20T01:40:17.348Z,23.29
2018-08-20T01:45:09.939Z,23.23
2018-08-20T01:50:02.467Z,23.22
2018-08-20T01:54:55.003Z,23.19
2018-08-20T01:59:47.536Z,23.18
2018-08-20T02:04:40.049Z,23.19
2018-08-20T02:09:32.557Z,23.17
2018-08-20T02:14:25.016Z,23.10
2018-08-20T02:19:17.511Z,23.02
2018-08-20T02:24:10.121Z,22.98
2018-08-20T02:29:02.596Z,22.92
2018-08-20T02:33:55.084Z,22.87
2018-08-20T02:38:47.736Z,22.80
2018-08-20T02:43:40.259Z,22.73
2018-08-20T02:48:32.743Z,22.67
2018-08-20T02:53:25.297Z,22.62
2018-08-20T02:58:17.775Z,22.57
2018-08-20T03:03:10.268Z,22.52
2018-08-20T03:08:02.752Z,22.47
2018-08-20T03:12:55.193Z,22.46
2018-08-20T03:17:47.699Z,22.41
2018-08-20T03:22:40.225Z,22.36
2018-08-20T03:27:32.677Z,22.31
2018-08-20T03:32:25.158Z,22.23
2018-08-20T03:37:18.097Z,22.17
2018-08-20T03:42:10.651Z,22.12
2018-08-20T03:47:03.169Z,22.11
2018-08-20T03:51:55.687Z,22.11
2018-08-20T03:56:48.240Z,21.94
2018-08-20T04:01:40.738Z,21.65
2018-08-20T04:06:33.274Z,21.36
2018-08-20T04:11:25.768Z,21.07
2018-08-20T04:16:18.262Z,20.85
2018-08-20T04:21:10.810Z,20.65
2018-08-20T04:26:03.374Z,20.53
2018-08-20T04:30:55.972Z,20.51
2018-08-20T04:35:48.528Z,20.56
2018-08-20T04:40:41.054Z,20.59
2018-08-20T04:45:33.622Z,20.50
2018-08-20T04:50:26.353Z,20.45
2018-08-20T04:55:18.727Z,20.37
2018-08-20T05:00:11.616Z,20.32
2018-08-20T05:05:04.189Z,20.30
2018-08-20T05:09:56.842Z,20.36
2018-08-20T05:14:49.368Z,20.40
2018-08-20T05:19:41.883Z,20.49
2018-08-20T05:24:34.416Z,20.62
2018-08-20T05:29:27.050Z,20.86
2018-08-20T05:34:19.465Z,21.18
2018-08-20T05:39:11.950Z,21.47
2018-08-20T05:44:04.492Z,21.66
2018-08-20T05:48:57.060Z,21.84
2018-08-20T05:53:49.526Z,21.99
2018-08-20T05:58:42.039Z,22.10
2018-08-20T06:03:34.638Z,22.32
2018-08-20T06:08:27.152Z,22.48
2018-08-20T06:13:19.695Z,22.65
2018-08-20T06:18:12.204Z,22.70
2018-08-20T06:23:05.342Z,22.62
2018-08-20T06:27:57.898Z,22.49
2018-08-20T06:32:50.371Z,22.41
2018-08-20T06:37:42.899Z,22.47
2018-08-20T06:42:35.556Z,22.57
2018-08-20T06:47:28.039Z,22.76
2018-08-20T06:52:20.529Z,22.92
2018-08-20T06:57:13.044Z,23.05
2018-08-20T07:02:05.606Z,23.06
2018-08-20T07:06:58.185Z,23.05
2018-08-20T07:11:50.720Z,23.11
2018-08-20T07:16:43.140Z,23.13
2018-08-20T07:21:35.627Z,23.20
2018-08-20T07:26:28.358Z,23.27
2018-08-20T07:31:33.869Z,23.51
2018-08-20T07:36:26.557Z,23.59
2018-08-20T07:41:19.166Z,23.61
2018-08-20T07:46:11.836Z,23.68
2018-08-20T07:51:04.280Z,23.72
2018-08-20T07:55:56.868Z,23.71
2018-08-20T08:00:49.413Z,23.71
2018-08-20T08:05:41.936Z,23.73
2018-08-20T08:10:34.643Z,23.79
2018-08-20T08:15:27.357Z,23.85
2018-08-20T08:20:19.985Z,23.76
2018-08-20T08:25:12.537Z,23.72
2018-08-20T08:30:11.237Z,23.74
2018-08-20T08:35:04.541Z,23.76
2018-08-20T08:39:57.063Z,23.78
2018-08-20T08:44:49.714Z,23.80
2018-08-20T08:49:42.545Z,23.85
2018-08-20T08:54:35.158Z,23.86
2018-08-20T08:59:27.811Z,23.84
2018-08-20T09:04:20.292Z,23.83
2018-08-20T09:09:13.075Z,23.84
2018-08-20T09:14:05.596Z,23.84
2018-08-20T09:18:58.146Z,23.97
2018-08-20T09:23:50.646Z,23.98
2018-08-20T09:28:43.221Z,24.00
2018-08-20T09:33:35.826Z,24.07
2018-08-20T09:38:28.339Z,24.16
2018-08-20T09:43:20.926Z,24.24
2018-08-20T09:48:13.470Z,24.28
2018-08-20T09:53:05.960Z,24.25
2018-08-20T09:57:58.415Z,24.20
2018-08-20T10:02:51.406Z,24.21
2018-08-20T10:07:44.469Z,24.23
2018-08-20T10:12:36.964Z,24.29
2018-08-20T10:17:29.517Z,24.34
2018-08-20T10:22:21.986Z,24.37
2018-08-20T10:27:14.591Z,24.42
2018-08-20T10:32:07.095Z,24.47
2018-08-20T10:36:59.612Z,24.55
2018-08-20T10:41:52.104Z,24.53
2018-08-20T10:46:44.646Z,24.60
2018-08-20T10:51:37.142Z,24.82
2018-08-20T10:56:30.412Z,24.94
2018-08-20T11:01:23.009Z,24.98
2018-08-20T11:06:16.408Z,24.93
2018-08-20T11:11:08.943Z,24.91
2018-08-20T11:16:01.435Z,24.87
2018-08-20T11:20:53.936Z,24.81
2018-08-20T11:25:46.469Z,24.82
2018-08-20T11:30:38.953Z,24.86
2018-08-20T11:35:31.467Z,24.86
2018-08-20T11:40:24.034Z,24.82
2018-08-20T11:45:16.709Z,24.76
2018-08-20T11:50:09.803Z,24.74
2018-08-20T11:55:02.256Z,24.74
2018-08-20T11:59:54.717Z,24.74
2018-08-20T12:04:47.386Z,24.79
2018-08-20T12:09:39.815Z,24.84
2018-08-20T12:14:32.324Z,24.87
2018-08-20T12:19:24.993Z,24.92
2018-08-20T12:24:17.588Z,24.98
2018-08-20T12:29:10.071Z,25.03
2018-08-20T12:34:02.491Z,25.03
2018-08-20T12:38:54.925Z,24.98
2018-08-20T12:43:47.514Z,24.98
2018-08-20T12:48:40.085Z,24.92
2018-08-20T12:53:32.581Z,24.91
2018-08-20T12:58:25.076Z,24.91
2018-08-20T13:03:17.680Z,24.97
2018-08-20T13:08:10.208Z,25.03
2018-08-20T13:13:02.683Z,25.07
2018-08-20T13:17:55.175Z,25.09
2018-08-20T13:22:47.701Z,25.12
2018-08-20T13:27:40.367Z,25.13
2018-08-20T13:32:32.917Z,25.12
2018-08-20T13:37:25.582Z,25.11
2018-08-20T13:42:18.065Z,25.12
2018-08-20T13:47:10.683Z,25.21
2018-08-20T13:52:03.390Z,25.18
2018-08-20T13:56:55.883Z,25.17
2018-08-20T14:01:48.336Z,25.12
2018-08-20T14:06:40.778Z,25.13
2018-08-20T14:11:33.369Z,25.15
2018-08-20T14:16:25.952Z,25.21
2018-08-20T14:21:18.435Z,25.24
2018-08-20T14:26:11.003Z,25.24
2018-08-20T14:31:03.535Z,25.17
2018-08-20T14:35:56.036Z,25.09
2018-08-20T14:40:48.483Z,25.04
2018-08-20T14:45:46.928Z,25.06
2018-08-20T14:50:39.384Z,25.02
2018-08-20T14:55:31.830Z,25.01
2018-08-20T15:00:24.390Z,25.03
2018-08-20T15:05:16.917Z,25.09
2018-08-20T15:10:09.612Z,25.14
2018-08-20T15:15:02.423Z,25.06
2018-08-20T15:19:54.823Z,25.05
2018-08-20T15:24:47.322Z,25.14
2018-08-20T15:29:39.845Z,25.20
2018-08-20T15:34:32.281Z,25.23
2018-08-20T15:39:24.778Z,25.20
2018-08-20T15:44:17.798Z,25.21
2018-08-20T15:49:10.300Z,25.18
2018-08-20T15:54:02.891Z,25.18
2018-08-20T15:58:55.529Z,25.17
2018-08-20T16:03:48.040Z,25.15
2018-08-20T16:08:40.631Z,25.15
2018-08-20T16:13:33.296Z,25.05
2018-08-20T16:18:25.916Z,24.97
2018-08-20T16:23:18.642Z,24.97
2018-08-20T16:28:11.138Z,25.03
2018-08-20T16:33:03.785Z,25.05
2018-08-20T16:37:56.336Z,24.94
2018-08-20T16:42:48.937Z,24.89
2018-08-20T16:47:41.521Z,24.93
2018-08-20T16:52:34.068Z,24.97
2018-08-20T16:57:26.631Z,24.93
2018-08-20T17:02:24.589Z,24.83
2018-08-20T17:07:17.081Z,24.79
2018-08-20T17:12:09.545Z,24.70
2018-08-20T17:17:02.091Z,24.66
2018-08-20T17:21:54.624Z,24.69
2018-08-20T17:26:47.360Z,24.69
2018-08-20T17:31:39.907Z,24.51
2018-08-20T17:36:32.381Z,24.29
2018-08-20T17:41:24.868Z,24.21
2018-08-20T17:46:17.761Z,24.14
2018-08-20T17:51:12.963Z,24.10
2018-08-20T17:56:05.485Z,24.00
2018-08-20T18:00:58.122Z,23.88
2018-08-20T18:05:55.623Z,23.83
2018-08-20T18:10:48.470Z,23.82
2018-08-20T18:15:41.013Z,23.79
2018-08-20T18:20:38.279Z,23.73
2018-08-20T18:25:35.515Z,23.70
2018-08-20T18:30:28.095Z,23.63
2018-08-20T18:35:26.046Z,23.61
2018-08-20T18:40:18.537Z,23.57
2018-08-20T18:45:11.090Z,23.56
2018-08-20T18:50:03.669Z,23.56
2018-08-20T18:54:57.295Z,23.56
2018-08-20T18:59:50.207Z,23.58
2018-08-20T19:04:47.567Z,23.56
2018-08-20T19:09:40.748Z,23.53
2018-08-20T19:14:33.298Z,23.47
2018-08-20T19:19:28.002Z,23.42
2018-08-20T19:24:20.594Z,23.38
2018-08-20T19:29:26.864Z,23.36
2018-08-20T19:34:19.375Z,23.37
2018-08-20T19:39:11.797Z,23.38
2018-08-20T19:44:04.329Z,23.34
2018-08-20T19:49:03.200Z,23.35
2018-08-20T19:53:55.676Z,23.39
2018-08-20T19:58:48.216Z,23.43
2018-08-20T20:03:42.764Z,23.45
2018-08-20T20:08:35.330Z,23.47
2018-08-20T20:13:27.866Z,23.49
2018-08-20T20:18:20.562Z,23.48
2018-08-20T20:23:13.163Z,23.48
2018-08-20T20:28:06.380Z,23.48
2018-08-20T20:32:58.832Z,23.45
2018-08-20T20:37:51.379Z,23.42
2018-08-20T20:42:43.860Z,23.40
2018-08-20T20:47:36.436Z,23.39
2018-08-20T20:52:28.931Z,23.36
2018-08-20T20:57:21.489Z,23.34
2018-08-20T21:02:13.977Z,23.32
2018-08-20T21:07:06.551Z,23.33
2018-08-20T21:11:59.242Z,23.28
2018-08-20T21:16:51.666Z,23.25
2018-08-20T21:21:44.124Z,23.24
2018-08-20T21:26:36.611Z,23.19
2018-08-20T21:31:36.122Z,23.15
2018-08-20T21:36:28.691Z,23.11
2018-08-20T21:41:22.914Z,23.06
2018-08-20T21:46:15.816Z,23.01
2018-08-20T21:51:14.716Z,22.96
2018-08-20T21:56:09.007Z,22.93
2018-08-20T22:01:01.560Z,22.90
2018-08-20T22:05:54.089Z,22.88
2018-08-20T22:10:46.745Z,22.85
2018-08-20T22:15:39.282Z,22.79
2018-08-20T22:20:31.812Z,22.75
2018-08-20T22:25:24.315Z,22.73
2018-08-20T22:30:17.056Z,22.69
2018-08-20T22:35:14.287Z,22.67
2018-08-20T22:40:06.776Z,22.64
2018-08-20T22:44:59.319Z,22.62
2018-08-20T22:49:51.819Z,22.57
2018-08-20T22:54:44.358Z,22.53
2018-08-20T22:59:36.836Z,22.49
2018-08-20T23:04:29.603Z,22.46
2018-08-20T23:09:31.352Z,22.41
2018-08-20T23:14:23.799Z,22.37
2018-08-20T23:19:16.347Z,22.35
2018-08-20T23:24:09.414Z,22.30
2018-08-20T23:29:01.897Z,22.25
2018-08-20T23:33:54.541Z,22.19
2018-08-20T23:38:47.028Z,22.15
2018-08-20T23:43:42.580Z,22.11
2018-08-20T23:48:35.094Z,22.07
2018-08-20T23:53:28.121Z,22.04
2018-08-20T23:58:20.909Z,21.99
